sensor_id;sensor_type;location;lat;lon;timestamp;pressure;altitude;pressure_sealevel;temperature;humidity
5877;BME280;2964;42.144;24.730;2023-08-21T00:00:21;147668.69;;;24.61;66.13
5877;BME280;2964;42.144;24.730;2023-08-21T00:02:48;147600.13;;;24.34;66.88
5877;BME280;2964;42.144;24.730;2023-08-21T00:05:15;147567.16;;;24.20;67.73
5877;BME280;2964;42.144;24.730;2023-08-21T00:07:42;147624.22;;;24.43;66.92
5877;BME280;2964;42.144;24.730;2023-08-21T00:10:09;147578.53;;;24.25;67.93
5877;BME280;2964;42.144;24.730;2023-08-21T00:12:38;147611.56;;;24.38;67.27
5877;BME280;2964;42.144;24.730;2023-08-21T00:15:07;147606.44;;;24.36;67.39
5877;BME280;2964;42.144;24.730;2023-08-21T00:17:35;147622.97;;;24.43;66.70
5877;BME280;2964;42.144;24.730;2023-08-21T00:20:01;147636.91;;;24.48;66.60
5877;BME280;2964;42.144;24.730;2023-08-21T00:22:29;147603.94;;;24.35;66.97
5877;BME280;2964;42.144;24.730;2023-08-21T00:24:55;147524.00;;;24.03;68.00
5877;BME280;2964;42.144;24.730;2023-08-21T00:27:22;147367.94;;;23.40;68.32
5877;BME280;2964;42.144;24.730;2023-08-21T00:29:48;147469.44;;;23.81;68.87
5877;BME280;2964;42.144;24.730;2023-08-21T00:32:16;147492.28;;;23.90;68.15
5877;BME280;2964;42.144;24.730;2023-08-21T00:34:43;147589.97;;;24.30;66.47
5877;BME280;2964;42.144;24.730;2023-08-21T00:37:10;147617.91;;;24.41;65.91
5877;BME280;2964;42.144;24.730;2023-08-21T00:39:36;147648.41;;;24.53;64.90
5877;BME280;2964;42.144;24.730;2023-08-21T00:42:03;147650.91;;;24.54;64.73
5877;BME280;2964;42.144;24.730;2023-08-21T00:44:30;147624.22;;;24.43;65.15
5877;BME280;2964;42.144;24.730;2023-08-21T00:46:57;147601.38;;;24.34;64.94
5877;BME280;2964;42.144;24.730;2023-08-21T00:49:25;147581.09;;;24.26;64.90
5877;BME280;2964;42.144;24.730;2023-08-21T00:51:52;147484.69;;;23.87;66.19
5877;BME280;2964;42.144;24.730;2023-08-21T00:54:19;147421.22;;;23.61;66.95
5877;BME280;2964;42.144;24.730;2023-08-21T00:56:46;147449.13;;;23.73;66.22
5877;BME280;2964;42.144;24.730;2023-08-21T00:59:13;147459.25;;;23.77;66.54
5877;BME280;2964;42.144;24.730;2023-08-21T01:01:40;147405.97;;;23.55;66.92
5877;BME280;2964;42.144;24.730;2023-08-21T01:04:07;147352.75;;;23.34;68.59
5877;BME280;2964;42.144;24.730;2023-08-21T01:06:36;147331.19;;;23.25;68.85
5877;BME280;2964;42.144;24.730;2023-08-21T01:09:08;147354.00;;;23.34;68.59
5877;BME280;2964;42.144;24.730;2023-08-21T01:11:42;147329.94;;;23.24;68.86
5877;BME280;2964;42.144;24.730;2023-08-21T01:14:17;147329.94;;;23.24;69.23
5877;BME280;2964;42.144;24.730;2023-08-21T01:16:53;147312.16;;;23.17;70.65
5877;BME280;2964;42.144;24.730;2023-08-21T01:19:26;147294.41;;;23.10;70.67
5877;BME280;2964;42.144;24.730;2023-08-21T01:21:58;147288.09;;;23.07;70.27
5877;BME280;2964;42.144;24.730;2023-08-21T01:24:27;147298.22;;;23.11;70.18
5877;BME280;2964;42.144;24.730;2023-08-21T01:26:53;147299.50;;;23.12;69.96
5877;BME280;2964;42.144;24.730;2023-08-21T01:29:20;147275.38;;;23.02;70.60
5877;BME280;2964;42.144;24.730;2023-08-21T01:31:50;147267.75;;;22.99;70.54
5877;BME280;2964;42.144;24.730;2023-08-21T01:34:19;147267.75;;;22.99;70.36
5877;BME280;2964;42.144;24.730;2023-08-21T01:36:47;147262.69;;;22.97;70.76
5877;BME280;2964;42.144;24.730;2023-08-21T01:39:14;147260.13;;;22.96;70.16
5877;BME280;2964;42.144;24.730;2023-08-21T01:41:42;147267.75;;;22.99;70.32
5877;BME280;2964;42.144;24.730;2023-08-21T01:44:09;147277.88;;;23.03;69.92
5877;BME280;2964;42.144;24.730;2023-08-21T01:46:35;147275.38;;;23.02;69.95
5877;BME280;2964;42.144;24.730;2023-08-21T01:49:02;147263.94;;;22.98;69.82
5877;BME280;2964;42.144;24.730;2023-08-21T01:51:29;147256.34;;;22.94;70.22
5877;BME280;2964;42.144;24.730;2023-08-21T01:53:55;147260.13;;;22.96;70.00
5877;BME280;2964;42.144;24.730;2023-08-21T01:56:22;147253.81;;;22.93;69.82
5877;BME280;2964;42.144;24.730;2023-08-21T01:58:50;147255.06;;;22.94;69.88
5877;BME280;2964;42.144;24.730;2023-08-21T02:01:17;147233.53;;;22.85;70.02
5877;BME280;2964;42.144;24.730;2023-08-21T02:03:45;147266.50;;;22.99;69.75
5877;BME280;2964;42.144;24.730;2023-08-21T02:06:12;147305.81;;;23.15;69.17
5877;BME280;2964;42.144;24.730;2023-08-21T02:08:39;147286.78;;;23.07;69.28
5877;BME280;2964;42.144;24.730;2023-08-21T02:11:05;147312.16;;;23.17;69.11
5877;BME280;2964;42.144;24.730;2023-08-21T02:13:32;147291.88;;;23.09;68.99
5877;BME280;2964;42.144;24.730;2023-08-21T02:16:00;147286.78;;;23.07;69.01
5877;BME280;2964;42.144;24.730;2023-08-21T02:18:27;147296.94;;;23.11;69.53
5877;BME280;2964;42.144;24.730;2023-08-21T02:20:54;147307.09;;;23.15;69.42
5877;BME280;2964;42.144;24.730;2023-08-21T02:23:21;147307.09;;;23.15;70.36
5877;BME280;2964;42.144;24.730;2023-08-21T02:25:49;147324.88;;;23.22;69.69
5877;BME280;2964;42.144;24.730;2023-08-21T02:28:16;147378.09;;;23.44;68.50
5877;BME280;2964;42.144;24.730;2023-08-21T02:30:42;147350.19;;;23.32;69.02
5877;BME280;2964;42.144;24.730;2023-08-21T02:33:10;147305.81;;;23.15;69.55
5877;BME280;2964;42.144;24.730;2023-08-21T02:35:38;147317.25;;;23.19;70.09
5877;BME280;2964;42.144;24.730;2023-08-21T02:38:04;147312.16;;;23.17;69.41
5877;BME280;2964;42.144;24.730;2023-08-21T02:40:31;147302.03;;;23.13;70.02
5877;BME280;2964;42.144;24.730;2023-08-21T02:42:58;147304.56;;;23.14;70.46
5877;BME280;2964;42.144;24.730;2023-08-21T02:45:24;147331.19;;;23.25;70.08
5877;BME280;2964;42.144;24.730;2023-08-21T02:47:51;147309.63;;;23.16;70.76
5877;BME280;2964;42.144;24.730;2023-08-21T02:50:19;147286.78;;;23.07;71.11
5877;BME280;2964;42.144;24.730;2023-08-21T02:52:46;147284.28;;;23.06;70.96
5877;BME280;2964;42.144;24.730;2023-08-21T02:55:13;147276.63;;;23.03;71.43
5877;BME280;2964;42.144;24.730;2023-08-21T02:57:41;147276.63;;;23.03;71.60
5877;BME280;2964;42.144;24.730;2023-08-21T03:00:08;147263.94;;;22.98;71.90
5877;BME280;2964;42.144;24.730;2023-08-21T03:02:35;147263.94;;;22.98;72.07
5877;BME280;2964;42.144;24.730;2023-08-21T03:05:03;147303.31;;;23.13;70.66
5877;BME280;2964;42.144;24.730;2023-08-21T03:07:31;147281.72;;;23.05;70.61
5877;BME280;2964;42.144;24.730;2023-08-21T03:09:58;147236.06;;;22.86;71.04
5877;BME280;2964;42.144;24.730;2023-08-21T03:12:25;147253.81;;;22.93;70.75
5877;BME280;2964;42.144;24.730;2023-08-21T03:14:51;147251.25;;;22.92;70.96
5877;BME280;2964;42.144;24.730;2023-08-21T03:17:18;147263.94;;;22.98;71.17
5877;BME280;2964;42.144;24.730;2023-08-21T03:19:45;147265.22;;;22.98;70.68
5877;BME280;2964;42.144;24.730;2023-08-21T03:22:11;147299.50;;;23.12;70.59
5877;BME280;2964;42.144;24.730;2023-08-21T03:24:40;147262.69;;;22.97;70.18
5877;BME280;2964;42.144;24.730;2023-08-21T03:27:07;147243.66;;;22.89;71.27
5877;BME280;2964;42.144;24.730;2023-08-21T03:29:33;147225.91;;;22.82;70.91
5877;BME280;2964;42.144;24.730;2023-08-21T03:32:00;147223.38;;;22.81;71.95
5877;BME280;2964;42.144;24.730;2023-08-21T03:34:27;147176.47;;;22.62;72.51
5877;BME280;2964;42.144;24.730;2023-08-21T03:36:53;147215.78;;;22.78;72.82
5877;BME280;2964;42.144;24.730;2023-08-21T03:39:20;147196.78;;;22.70;72.23
5877;BME280;2964;42.144;24.730;2023-08-21T03:41:48;147177.75;;;22.63;72.69
5877;BME280;2964;42.144;24.730;2023-08-21T03:44:15;147170.16;;;22.60;73.54
5877;BME280;2964;42.144;24.730;2023-08-21T03:46:41;147223.38;;;22.81;71.88
5877;BME280;2964;42.144;24.730;2023-08-21T03:49:08;147203.09;;;22.73;73.18
5877;BME280;2964;42.144;24.730;2023-08-21T03:51:34;147195.47;;;22.70;74.41
5877;BME280;2964;42.144;24.730;2023-08-21T03:54:01;147073.81;;;22.21;73.62
5877;BME280;2964;42.144;24.730;2023-08-21T03:56:28;147175.22;;;22.62;74.21
5877;BME280;2964;42.144;24.730;2023-08-21T03:58:56;147189.16;;;22.67;73.37
5877;BME280;2964;42.144;24.730;2023-08-21T04:01:23;147190.41;;;22.68;73.65
5877;BME280;2964;42.144;24.730;2023-08-21T04:03:49;147190.41;;;22.68;73.78
5877;BME280;2964;42.144;24.730;2023-08-21T04:06:16;147189.16;;;22.67;73.76
5877;BME280;2964;42.144;24.730;2023-08-21T04:08:43;147209.41;;;22.75;73.58
5877;BME280;2964;42.144;24.730;2023-08-21T04:11:09;147163.78;;;22.57;72.33
5877;BME280;2964;42.144;24.730;2023-08-21T04:13:36;147243.66;;;22.89;72.39
5877;BME280;2964;42.144;24.730;2023-08-21T04:16:04;147220.84;;;22.80;72.16
5877;BME280;2964;42.144;24.730;2023-08-21T04:18:31;147256.34;;;22.94;72.96
5877;BME280;2964;42.144;24.730;2023-08-21T04:20:58;147271.56;;;23.01;73.24
5877;BME280;2964;42.144;24.730;2023-08-21T04:23:24;147257.59;;;22.95;73.05
5877;BME280;2964;42.144;24.730;2023-08-21T04:25:51;147285.53;;;23.06;71.96
5877;BME280;2964;42.144;24.730;2023-08-21T04:28:17;147308.38;;;23.16;71.80
5877;BME280;2964;42.144;24.730;2023-08-21T04:30:44;147322.31;;;23.21;70.74
5877;BME280;2964;42.144;24.730;2023-08-21T04:33:12;147341.31;;;23.29;70.50
5877;BME280;2964;42.144;24.730;2023-08-21T04:35:39;147352.75;;;23.34;70.92
5877;BME280;2964;42.144;24.730;2023-08-21T04:38:05;147331.19;;;23.25;69.57
5877;BME280;2964;42.144;24.730;2023-08-21T04:40:32;147400.91;;;23.53;69.61
5877;BME280;2964;42.144;24.730;2023-08-21T04:42:59;147426.28;;;23.63;68.68
5877;BME280;2964;42.144;24.730;2023-08-21T04:45:25;147416.16;;;23.59;68.35
5877;BME280;2964;42.144;24.730;2023-08-21T04:47:52;147460.50;;;23.77;68.47
5877;BME280;2964;42.144;24.730;2023-08-21T04:50:20;147525.28;;;24.03;67.35
5877;BME280;2964;42.144;24.730;2023-08-21T04:52:47;147537.94;;;24.08;67.72
5877;BME280;2964;42.144;24.730;2023-08-21T04:55:14;147564.59;;;24.19;67.34
5877;BME280;2964;42.144;24.730;2023-08-21T04:57:41;147609.00;;;24.37;66.54
5877;BME280;2964;42.144;24.730;2023-08-21T05:00:08;147631.84;;;24.46;67.33
5877;BME280;2964;42.144;24.730;2023-08-21T05:02:36;147629.28;;;24.45;66.42
5877;BME280;2964;42.144;24.730;2023-08-21T05:05:03;147742.31;;;24.91;65.03
5877;BME280;2964;42.144;24.730;2023-08-21T05:07:31;147827.41;;;25.26;63.86
5877;BME280;2964;42.144;24.730;2023-08-21T05:09:59;147860.41;;;25.39;64.33
5877;BME280;2964;42.144;24.730;2023-08-21T05:12:26;147988.66;;;25.91;62.47
5877;BME280;2964;42.144;24.730;2023-08-21T05:14:53;148211.13;;;26.81;59.83
5877;BME280;2964;42.144;24.730;2023-08-21T05:17:19;148527.78;;;28.08;58.45
5877;BME280;2964;42.144;24.730;2023-08-21T05:19:46;148735.22;;;28.92;53.20
5877;BME280;2964;42.144;24.730;2023-08-21T05:22:13;149057.38;;;30.22;50.24
5877;BME280;2964;42.144;24.730;2023-08-21T05:24:41;149261.31;;;31.04;46.76
5877;BME280;2964;42.144;24.730;2023-08-21T05:27:07;149391.31;;;31.57;45.15
5877;BME280;2964;42.144;24.730;2023-08-21T05:29:34;149662.97;;;32.66;43.97
5877;BME280;2964;42.144;24.730;2023-08-21T05:32:01;149531.63;;;32.13;45.52
5877;BME280;2964;42.144;24.730;2023-08-21T05:34:27;149622.13;;;32.49;46.15
5877;BME280;2964;42.144;24.730;2023-08-21T05:36:54;149467.81;;;31.87;44.92
5877;BME280;2964;42.144;24.730;2023-08-21T05:39:21;149617.03;;;32.47;44.64
5877;BME280;2964;42.144;24.730;2023-08-21T05:41:49;149928.44;;;33.73;39.75
5877;BME280;2964;42.144;24.730;2023-08-21T05:44:15;150081.63;;;34.34;40.62
5877;BME280;2964;42.144;24.730;2023-08-21T05:46:42;149908.03;;;33.64;41.31
5877;BME280;2964;42.144;24.730;2023-08-21T05:49:09;150128.88;;;34.53;40.01
5877;BME280;2964;42.144;24.730;2023-08-21T05:51:35;150176.16;;;34.72;39.66
5877;BME280;2964;42.144;24.730;2023-08-21T05:54:02;150181.25;;;34.74;38.90
5877;BME280;2964;42.144;24.730;2023-08-21T05:56:29;150309.03;;;35.26;37.20
5877;BME280;2964;42.144;24.730;2023-08-21T05:58:57;150757.69;;;37.06;34.11
5877;BME280;2964;42.144;24.730;2023-08-21T06:01:23;150994.34;;;38.01;32.64
5877;BME280;2964;42.144;24.730;2023-08-21T06:03:50;151206.78;;;38.86;30.81
5877;BME280;2964;42.144;24.730;2023-08-21T06:06:17;151433.47;;;39.77;28.93
5877;BME280;2964;42.144;24.730;2023-08-21T06:08:43;151450.06;;;39.84;27.88
5877;BME280;2964;42.144;24.730;2023-08-21T06:11:10;151375.84;;;39.54;29.07
5877;BME280;2964;42.144;24.730;2023-08-21T06:13:37;151642.25;;;40.61;28.52
5877;BME280;2964;42.144;24.730;2023-08-21T06:16:05;151707.59;;;40.87;27.78
5877;BME280;2964;42.144;24.730;2023-08-21T06:18:32;151892.13;;;41.61;25.16
5877;BME280;2964;42.144;24.730;2023-08-21T06:20:59;151928.06;;;41.75;24.45
5877;BME280;2964;42.144;24.730;2023-08-21T06:23:25;152060.13;;;42.28;24.56
5877;BME280;2964;42.144;24.730;2023-08-21T06:25:52;152283.25;;;43.17;23.96
5877;BME280;2964;42.144;24.730;2023-08-21T06:28:19;152252.47;;;43.05;22.88
5877;BME280;2964;42.144;24.730;2023-08-21T06:30:45;152339.72;;;43.40;22.34
5877;BME280;2964;42.144;24.730;2023-08-21T06:33:13;152290.97;;;43.21;22.49
5877;BME280;2964;42.144;24.730;2023-08-21T06:35:40;152375.63;;;43.54;22.31
5877;BME280;2964;42.144;24.730;2023-08-21T06:38:07;152524.50;;;44.14;21.49
5877;BME280;2964;42.144;24.730;2023-08-21T06:40:33;152446.25;;;43.83;21.67
5877;BME280;2964;42.144;24.730;2023-08-21T06:43:00;152329.47;;;43.36;21.82
5877;BME280;2964;42.144;24.730;2023-08-21T06:45:27;152332.06;;;43.37;21.84
5877;BME280;2964;42.144;24.730;2023-08-21T06:47:56;152373.09;;;43.53;21.39
5877;BME280;2964;42.144;24.730;2023-08-21T06:50:24;152542.47;;;44.21;21.47
5877;BME280;2964;42.144;24.730;2023-08-21T06:52:50;152470.59;;;43.92;21.94
5877;BME280;2964;42.144;24.730;2023-08-21T06:55:17;152543.78;;;44.22;21.07
5877;BME280;2964;42.144;24.730;2023-08-21T06:57:44;152506.53;;;44.07;21.40
5877;BME280;2964;42.144;24.730;2023-08-21T07:00:11;152792.78;;;45.21;19.93
5877;BME280;2964;42.144;24.730;2023-08-21T07:02:38;152937.91;;;45.79;20.00
5877;BME280;2964;42.144;24.730;2023-08-21T07:05:05;152675.94;;;44.75;20.09
5877;BME280;2964;42.144;24.730;2023-08-21T07:07:33;152308.94;;;43.28;21.42
5877;BME280;2964;42.144;24.730;2023-08-21T07:10:00;152008.88;;;42.08;22.79
5877;BME280;2964;42.144;24.730;2023-08-21T07:12:28;151688.41;;;40.79;24.22
5877;BME280;2964;42.144;24.730;2023-08-21T07:14:55;151788.31;;;41.19;24.32
5877;BME280;2964;42.144;24.730;2023-08-21T07:17:21;151793.50;;;41.21;24.14
5877;BME280;2964;42.144;24.730;2023-08-21T07:19:48;151843.47;;;41.41;24.21
5877;BME280;2964;42.144;24.730;2023-08-21T07:22:17;151812.69;;;41.29;23.68
5877;BME280;2964;42.144;24.730;2023-08-21T07:24:46;152235.84;;;42.98;23.08
5877;BME280;2964;42.144;24.730;2023-08-21T07:27:13;152768.38;;;45.12;19.49
5877;BME280;2964;42.144;24.730;2023-08-21T07:29:39;152937.91;;;45.79;19.09
5877;BME280;2964;42.144;24.730;2023-08-21T07:32:06;152668.28;;;44.71;20.46
5877;BME280;2964;42.144;24.730;2023-08-21T07:34:33;152708.03;;;44.87;19.63
5877;BME280;2964;42.144;24.730;2023-08-21T07:36:59;152940.50;;;45.80;18.97
5877;BME280;2964;42.144;24.730;2023-08-21T07:39:26;153099.72;;;46.44;17.76
5877;BME280;2964;42.144;24.730;2023-08-21T07:41:54;152732.47;;;44.97;19.59
5877;BME280;2964;42.144;24.730;2023-08-21T07:44:21;152601.47;;;44.45;20.60
5877;BME280;2964;42.144;24.730;2023-08-21T07:46:47;152885.25;;;45.58;18.88
5877;BME280;2964;42.144;24.730;2023-08-21T07:49:14;152678.53;;;44.76;20.20
5877;BME280;2964;42.144;24.730;2023-08-21T07:51:40;153030.38;;;46.16;18.46
5877;BME280;2964;42.144;24.730;2023-08-21T07:54:07;152755.59;;;45.06;19.85
5877;BME280;2964;42.144;24.730;2023-08-21T07:56:34;153233.38;;;46.97;18.29
5877;BME280;2964;42.144;24.730;2023-08-21T07:59:02;153340.03;;;47.40;17.95
5877;BME280;2964;42.144;24.730;2023-08-21T08:01:29;153507.13;;;48.07;17.80
5877;BME280;2964;42.144;24.730;2023-08-21T08:03:58;153639.53;;;48.60;17.24
5877;BME280;2964;42.144;24.730;2023-08-21T08:06:24;153414.56;;;47.70;17.49
5877;BME280;2964;42.144;24.730;2023-08-21T08:08:51;153338.75;;;47.40;17.56
5877;BME280;2964;42.144;24.730;2023-08-21T08:11:18;153945.66;;;49.82;16.04
5877;BME280;2964;42.144;24.730;2023-08-21T08:13:44;153754.03;;;49.05;16.66
5877;BME280;2964;42.144;24.730;2023-08-21T08:16:12;153644.66;;;48.62;16.42
5877;BME280;2964;42.144;24.730;2023-08-21T08:18:39;153228.25;;;46.95;16.91
5877;BME280;2964;42.144;24.730;2023-08-21T08:21:06;153408.16;;;47.67;17.12
5877;BME280;2964;42.144;24.730;2023-08-21T08:23:32;153707.72;;;48.87;17.04
5877;BME280;2964;42.144;24.730;2023-08-21T08:25:59;153768.16;;;49.11;16.82
5877;BME280;2964;42.144;24.730;2023-08-21T08:28:26;153703.84;;;48.85;15.91
5877;BME280;2964;42.144;24.730;2023-08-21T08:30:52;153930.19;;;49.76;15.20
5877;BME280;2964;42.144;24.730;2023-08-21T08:33:21;153395.31;;;47.62;17.40
5877;BME280;2964;42.144;24.730;2023-08-21T08:35:47;153363.13;;;47.49;17.50
5877;BME280;2964;42.144;24.730;2023-08-21T08:38:14;153756.56;;;49.06;15.41
5877;BME280;2964;42.144;24.730;2023-08-21T08:40:43;154070.41;;;50.32;14.66
5877;BME280;2964;42.144;24.730;2023-08-21T08:43:11;154199.13;;;50.83;13.84
5877;BME280;2964;42.144;24.730;2023-08-21T08:45:38;154442.38;;;51.80;13.77
5877;BME280;2964;42.144;24.730;2023-08-21T08:48:06;154145.03;;;50.62;14.73
5877;BME280;2964;42.144;24.730;2023-08-21T08:50:34;153377.25;;;47.55;15.87
5877;BME280;2964;42.144;24.730;2023-08-21T08:53:02;153958.50;;;49.87;14.46
5877;BME280;2964;42.144;24.730;2023-08-21T08:55:29;154321.41;;;51.32;13.43
5877;BME280;2964;42.144;24.730;2023-08-21T08:57:56;154332.94;;;51.36;14.24
5877;BME280;2964;42.144;24.730;2023-08-21T09:00:23;154116.75;;;50.50;15.78
5877;BME280;2964;42.144;24.730;2023-08-21T09:02:50;154361.25;;;51.48;15.11
5877;BME280;2964;42.144;24.730;2023-08-21T09:05:17;154277.59;;;51.14;14.71
5877;BME280;2964;42.144;24.730;2023-08-21T09:07:45;154035.72;;;50.18;15.10
5877;BME280;2964;42.144;24.730;2023-08-21T09:10:13;154312.38;;;51.28;15.48
5877;BME280;2964;42.144;24.730;2023-08-21T09:12:40;154474.59;;;51.93;13.14
5877;BME280;2964;42.144;24.730;2023-08-21T09:15:08;154689.56;;;52.79;13.08
5877;BME280;2964;42.144;24.730;2023-08-21T09:17:34;154614.88;;;52.49;12.70
5877;BME280;2964;42.144;24.730;2023-08-21T09:20:04;154514.44;;;52.09;12.95
5877;BME280;2964;42.144;24.730;2023-08-21T09:22:31;154267.31;;;51.10;13.38
5877;BME280;2964;42.144;24.730;2023-08-21T09:25:03;153871.03;;;49.52;14.81
5877;BME280;2964;42.144;24.730;2023-08-21T09:27:32;154367.72;;;51.50;14.96
5877;BME280;2964;42.144;24.730;2023-08-21T09:29:59;154486.16;;;51.98;13.83
5877;BME280;2964;42.144;24.730;2023-08-21T09:32:26;154580.16;;;52.35;13.46
5877;BME280;2964;42.144;24.730;2023-08-21T09:34:53;153934.09;;;49.77;14.91
5877;BME280;2964;42.144;24.730;2023-08-21T09:37:20;154275.03;;;51.13;14.04
5877;BME280;2964;42.144;24.730;2023-08-21T09:39:46;154526.03;;;52.14;12.91
5877;BME280;2964;42.144;24.730;2023-08-21T09:42:14;154004.78;;;50.06;13.84
5877;BME280;2964;42.144;24.730;2023-08-21T09:44:41;153777.16;;;49.15;14.26
5877;BME280;2964;42.144;24.730;2023-08-21T09:47:10;153639.53;;;48.60;14.68
5877;BME280;2964;42.144;24.730;2023-08-21T09:49:37;153575.28;;;48.34;15.03
5877;BME280;2964;42.144;24.730;2023-08-21T09:52:05;152810.78;;;45.28;16.65
5877;BME280;2964;42.144;24.730;2023-08-21T09:54:33;152231.97;;;42.97;18.66
5877;BME280;2964;42.144;24.730;2023-08-21T09:57:01;152278.13;;;43.15;18.67
5877;BME280;2964;42.144;24.730;2023-08-21T09:59:29;152048.56;;;42.23;19.08
5877;BME280;2964;42.144;24.730;2023-08-21T10:01:58;152359.00;;;43.48;18.54
5877;BME280;2964;42.144;24.730;2023-08-21T10:04:27;151711.47;;;40.88;20.38
5877;BME280;2964;42.144;24.730;2023-08-21T10:06:55;151168.41;;;38.71;22.74
5877;BME280;2964;42.144;24.730;2023-08-21T10:09:23;151171.00;;;38.72;23.08
5877;BME280;2964;42.144;24.730;2023-08-21T10:11:50;151040.44;;;38.19;24.23
5877;BME280;2964;42.144;24.730;2023-08-21T10:14:19;151027.63;;;38.14;23.37
5877;BME280;2964;42.144;24.730;2023-08-21T10:16:49;150938.06;;;37.78;23.77
5877;BME280;2964;42.144;24.730;2023-08-21T10:19:17;150967.47;;;37.90;25.37
5877;BME280;2964;42.144;24.730;2023-08-21T10:21:46;150941.91;;;37.80;24.93
5877;BME280;2964;42.144;24.730;2023-08-21T10:24:26;150913.78;;;37.69;24.85
5877;BME280;2964;42.144;24.730;2023-08-21T10:26:52;150828.03;;;37.34;25.32
5877;BME280;2964;42.144;24.730;2023-08-21T10:29:19;150752.59;;;37.04;24.78
5877;BME280;2964;42.144;24.730;2023-08-21T10:31:46;150568.50;;;36.30;25.16
5877;BME280;2964;42.144;24.730;2023-08-21T10:34:14;150490.50;;;35.99;25.84
5877;BME280;2964;42.144;24.730;2023-08-21T10:37:09;150424.03;;;35.72;25.62
5877;BME280;2964;42.144;24.730;2023-08-21T10:39:38;150412.50;;;35.67;25.98
5877;BME280;2964;42.144;24.730;2023-08-21T10:42:06;150411.19;;;35.67;26.10
5877;BME280;2964;42.144;24.730;2023-08-21T10:44:35;150349.91;;;35.42;26.41
5877;BME280;2964;42.144;24.730;2023-08-21T10:47:16;150420.19;;;35.70;26.29
5877;BME280;2964;42.144;24.730;2023-08-21T10:49:45;150440.66;;;35.79;26.11
5877;BME280;2964;42.144;24.730;2023-08-21T10:52:12;150411.19;;;35.67;26.87
5877;BME280;2964;42.144;24.730;2023-08-21T10:54:47;150491.75;;;35.99;25.99
5877;BME280;2964;42.144;24.730;2023-08-21T10:57:14;150556.97;;;36.25;25.77
5877;BME280;2964;42.144;24.730;2023-08-21T10:59:51;150614.50;;;36.48;25.23
5877;BME280;2964;42.144;24.730;2023-08-21T11:02:19;150665.66;;;36.69;25.17
5877;BME280;2964;42.144;24.730;2023-08-21T11:04:47;150709.09;;;36.86;25.33
5877;BME280;2964;42.144;24.730;2023-08-21T11:07:14;150706.56;;;36.85;25.40
5877;BME280;2964;42.144;24.730;2023-08-21T11:09:41;150549.28;;;36.22;25.57
5877;BME280;2964;42.144;24.730;2023-08-21T11:12:09;150586.34;;;36.37;25.95
5877;BME280;2964;42.144;24.730;2023-08-21T11:14:37;150600.38;;;36.43;25.25
5877;BME280;2964;42.144;24.730;2023-08-21T11:17:04;150650.25;;;36.63;25.13
5877;BME280;2964;42.144;24.730;2023-08-21T11:19:32;150695.03;;;36.81;24.89
5877;BME280;2964;42.144;24.730;2023-08-21T11:22:00;150715.53;;;36.89;24.91
5877;BME280;2964;42.144;24.730;2023-08-21T11:24:46;150729.56;;;36.95;24.64
5877;BME280;2964;42.144;24.730;2023-08-21T11:27:15;150677.13;;;36.74;24.90
5877;BME280;2964;42.144;24.730;2023-08-21T11:29:43;150615.75;;;36.49;24.82
5877;BME280;2964;42.144;24.730;2023-08-21T11:32:12;150571.00;;;36.31;24.96
5877;BME280;2964;42.144;24.730;2023-08-21T11:34:39;150613.19;;;36.48;24.80
5877;BME280;2964;42.144;24.730;2023-08-21T11:37:08;150631.06;;;36.55;25.27
5877;BME280;2964;42.144;24.730;2023-08-21T11:39:42;150657.94;;;36.66;24.77
5877;BME280;2964;42.144;24.730;2023-08-21T11:42:10;150642.59;;;36.60;24.66
5877;BME280;2964;42.144;24.730;2023-08-21T11:44:45;150655.34;;;36.65;25.66
5877;BME280;2964;42.144;24.730;2023-08-21T11:47:13;150687.34;;;36.78;25.16
5877;BME280;2964;42.144;24.730;2023-08-21T11:49:41;150613.19;;;36.48;24.90
5877;BME280;2964;42.144;24.730;2023-08-21T11:52:10;150632.34;;;36.56;25.37
5877;BME280;2964;42.144;24.730;2023-08-21T11:54:38;150627.25;;;36.53;24.92
5877;BME280;2964;42.144;24.730;2023-08-21T11:57:06;150609.34;;;36.46;24.92
5877;BME280;2964;42.144;24.730;2023-08-21T11:59:34;150618.28;;;36.50;24.87
5877;BME280;2964;42.144;24.730;2023-08-21T12:02:00;150585.06;;;36.37;25.61
5877;BME280;2964;42.144;24.730;2023-08-21T12:04:27;150564.66;;;36.28;24.98
5877;BME280;2964;42.144;24.730;2023-08-21T12:06:54;150565.91;;;36.29;24.83
5877;BME280;2964;42.144;24.730;2023-08-21T12:09:22;150508.34;;;36.06;24.80
5877;BME280;2964;42.144;24.730;2023-08-21T12:11:48;150558.22;;;36.26;24.97
5877;BME280;2964;42.144;24.730;2023-08-21T12:14:15;150478.97;;;35.94;25.27
5877;BME280;2964;42.144;24.730;2023-08-21T12:16:42;150498.13;;;36.02;25.62
5877;BME280;2964;42.144;24.730;2023-08-21T12:19:09;150389.50;;;35.58;25.57
5877;BME280;2964;42.144;24.730;2023-08-21T12:21:37;150504.53;;;36.04;25.80
5877;BME280;2964;42.144;24.730;2023-08-21T12:24:04;150508.34;;;36.06;26.35
5877;BME280;2964;42.144;24.730;2023-08-21T12:26:33;150505.81;;;36.05;25.47
5877;BME280;2964;42.144;24.730;2023-08-21T12:29:00;150507.06;;;36.05;26.24
5877;BME280;2964;42.144;24.730;2023-08-21T12:31:27;150482.81;;;35.95;26.36
5877;BME280;2964;42.144;24.730;2023-08-21T12:33:54;150438.09;;;35.78;26.25
5877;BME280;2964;42.144;24.730;2023-08-21T12:36:21;150415.03;;;35.68;26.38
5877;BME280;2964;42.144;24.730;2023-08-21T12:38:48;150432.97;;;35.75;26.67
5877;BME280;2964;42.144;24.730;2023-08-21T12:41:17;150461.06;;;35.87;26.69
5877;BME280;2964;42.144;24.730;2023-08-21T12:43:45;150441.94;;;35.79;26.35
5877;BME280;2964;42.144;24.730;2023-08-21T12:46:13;150490.50;;;35.99;26.02
5877;BME280;2964;42.144;24.730;2023-08-21T12:48:39;150500.69;;;36.03;26.86
5877;BME280;2964;42.144;24.730;2023-08-21T12:51:06;150528.81;;;36.14;26.44
5877;BME280;2964;42.144;24.730;2023-08-21T12:53:33;150583.81;;;36.36;25.97
5877;BME280;2964;42.144;24.730;2023-08-21T12:56:01;150608.06;;;36.46;25.47
5877;BME280;2964;42.144;24.730;2023-08-21T12:58:30;150579.97;;;36.35;25.61
5877;BME280;2964;42.144;24.730;2023-08-21T13:00:59;150651.56;;;36.63;25.61